sensor_id;sensor_type;location;lat;lon;timestamp;pressure;altitude;pressure_sealevel;temperature;humidity
20444;BME280;10381;53.730;10.010;2023-04-19T00:01:40;102799.91;;;3.01;100.00
20444;BME280;10381;53.730;10.010;2023-04-19T00:05:40;102799.25;;;2.91;100.00
20444;BME280;10381;53.730;10.010;2023-04-19T00:09:40;102798.50;;;2.87;100.00
20444;BME280;10381;53.730;10.010;2023-04-19T00:13:41;102788.94;;;2.85;100.00
20444;BME280;10381;53.730;10.010;2023-04-19T00:17:41;102790.34;;;2.98;100.00
20444;BME280;10381;53.730;10.010;2023-04-19T00:21:41;102784.97;;;3.04;100.00
20444;BME280;10381;53.730;10.010;2023-04-19T00:25:41;102780.88;;;2.94;100.00
20444;BME280;10381;53.730;10.010;2023-04-19T00:29:42;102772.53;;;2.78;100.00
20444;BME280;10381;53.730;10.010;2023-04-19T00:33:42;102768.41;;;2.68;100.00
20444;BME280;10381;53.730;10.010;2023-04-19T00:37:42;102769.25;;;2.70;100.00
20444;BME280;10381;53.730;10.010;2023-04-19T00:41:42;102771.03;;;2.68;100.00
20444;BME280;10381;53.730;10.010;2023-04-19T00:45:43;102771.22;;;2.59;100.00
20444;BME280;10381;53.730;10.010;2023-04-19T00:49:43;102766.38;;;2.43;100.00
20444;BME280;10381;53.730;10.010;2023-04-19T00:53:44;102763.97;;;2.32;100.00
20444;BME280;10381;53.730;10.010;2023-04-19T00:57:44;102766.47;;;2.39;100.00
20444;BME280;10381;53.730;10.010;2023-04-19T01:01:45;102770.88;;;2.35;100.00
20444;BME280;10381;53.730;10.010;2023-04-19T01:05:46;102770.97;;;2.30;100.00
20444;BME280;10381;53.730;10.010;2023-04-19T01:09:47;102775.44;;;2.27;100.00
20444;BME280;10381;53.730;10.010;2023-04-19T01:13:47;102772.09;;;2.19;100.00
20444;BME280;10381;53.730;10.010;2023-04-19T01:17:48;102779.25;;;2.10;100.00
20444;BME280;10381;53.730;10.010;2023-04-19T01:21:48;102774.78;;;2.17;100.00
20444;BME280;10381;53.730;10.010;2023-04-19T01:25:49;102775.66;;;2.16;100.00
20444;BME280;10381;53.730;10.010;2023-04-19T01:29:49;102768.72;;;2.13;100.00
20444;BME280;10381;53.730;10.010;2023-04-19T01:33:49;102770.50;;;2.11;100.00
20444;BME280;10381;53.730;10.010;2023-04-19T01:37:50;102775.06;;;2.03;100.00
20444;BME280;10381;53.730;10.010;2023-04-19T01:41:52;102777.56;;;2.09;100.00
20444;BME280;10381;53.730;10.010;2023-04-19T01:45:52;102775.97;;;2.02;100.00
20444;BME280;10381;53.730;10.010;2023-04-19T01:49:52;102769.91;;;2.00;100.00
20444;BME280;10381;53.730;10.010;2023-04-19T01:53:53;102764.41;;;2.12;100.00
20444;BME280;10381;53.730;10.010;2023-04-19T01:57:53;102756.75;;;2.03;100.00
20444;BME280;10381;53.730;10.010;2023-04-19T02:01:54;102748.88;;;2.05;100.00
20444;BME280;10381;53.730;10.010;2023-04-19T02:05:54;102743.50;;;2.11;100.00
20444;BME280;10381;53.730;10.010;2023-04-19T02:09:54;102741.63;;;2.18;100.00
20444;BME280;10381;53.730;10.010;2023-04-19T02:13:55;102748.63;;;2.17;100.00
20444;BME280;10381;53.730;10.010;2023-04-19T02:17:55;102744.97;;;2.24;100.00
20444;BME280;10381;53.730;10.010;2023-04-19T02:21:55;102748.94;;;2.42;100.00
20444;BME280;10381;53.730;10.010;2023-04-19T02:25:56;102751.53;;;2.44;100.00
20444;BME280;10381;53.730;10.010;2023-04-19T02:29:57;102746.38;;;2.39;100.00
20444;BME280;10381;53.730;10.010;2023-04-19T02:33:57;102750.50;;;2.49;100.00
20444;BME280;10381;53.730;10.010;2023-04-19T02:37:59;102741.13;;;2.76;100.00
20444;BME280;10381;53.730;10.010;2023-04-19T02:41:59;102738.38;;;2.83;100.00
20444;BME280;10381;53.730;10.010;2023-04-19T02:46:00;102731.91;;;2.97;100.00
20444;BME280;10381;53.730;10.010;2023-04-19T02:50:01;102739.88;;;2.93;100.00
20444;BME280;10381;53.730;10.010;2023-04-19T02:54:01;102736.41;;;2.91;100.00
20444;BME280;10381;53.730;10.010;2023-04-19T02:58:02;102730.41;;;2.87;100.00
20444;BME280;10381;53.730;10.010;2023-04-19T03:02:02;102734.19;;;2.75;100.00
20444;BME280;10381;53.730;10.010;2023-04-19T03:06:02;102729.22;;;2.65;100.00
20444;BME280;10381;53.730;10.010;2023-04-19T03:10:03;102728.75;;;2.47;100.00
20444;BME280;10381;53.730;10.010;2023-04-19T03:14:04;102727.97;;;2.44;100.00
20444;BME280;10381;53.730;10.010;2023-04-19T03:18:04;102719.28;;;2.43;100.00
20444;BME280;10381;53.730;10.010;2023-04-19T03:22:04;102720.13;;;2.44;100.00
20444;BME280;10381;53.730;10.010;2023-04-19T03:26:05;102716.41;;;2.52;100.00
20444;BME280;10381;53.730;10.010;2023-04-19T03:30:06;102712.00;;;2.54;100.00
20444;BME280;10381;53.730;10.010;2023-04-19T03:34:07;102711.31;;;2.48;100.00
20444;BME280;10381;53.730;10.010;2023-04-19T03:38:07;102705.38;;;2.41;100.00
20444;BME280;10381;53.730;10.010;2023-04-19T03:42:07;102706.31;;;2.39;100.00
20444;BME280;10381;53.730;10.010;2023-04-19T03:46:07;102704.63;;;2.36;100.00
20444;BME280;10381;53.730;10.010;2023-04-19T03:50:09;102701.13;;;2.35;100.00
20444;BME280;10381;53.730;10.010;2023-04-19T03:54:11;102699.44;;;2.33;100.00
20444;BME280;10381;53.730;10.010;2023-04-19T03:58:11;102695.03;;;2.35;100.00
20444;BME280;10381;53.730;10.010;2023-04-19T04:02:11;102698.56;;;2.34;100.00
20444;BME280;10381;53.730;10.010;2023-04-19T04:06:12;102695.94;;;2.34;100.00
20444;BME280;10381;53.730;10.010;2023-04-19T04:10:12;102693.41;;;2.31;100.00
20444;BME280;10381;53.730;10.010;2023-04-19T04:14:12;102692.22;;;2.44;100.00
20444;BME280;10381;53.730;10.010;2023-04-19T04:18:13;102691.16;;;2.51;100.00
20444;BME280;10381;53.730;10.010;2023-04-19T04:22:13;102689.59;;;2.44;100.00
20444;BME280;10381;53.730;10.010;2023-04-19T04:26:13;102686.84;;;2.50;100.00
20444;BME280;10381;53.730;10.010;2023-04-19T04:30:13;102690.97;;;2.59;100.00
20444;BME280;10381;53.730;10.010;2023-04-19T04:34:14;102688.63;;;2.84;100.00
20444;BME280;10381;53.730;10.010;2023-04-19T04:38:14;102682.03;;;3.35;100.00
20444;BME280;10381;53.730;10.010;2023-04-19T04:42:14;102687.28;;;3.94;100.00
20444;BME280;10381;53.730;10.010;2023-04-19T04:46:14;102690.50;;;4.60;100.00
20444;BME280;10381;53.730;10.010;2023-04-19T04:50:15;102686.56;;;5.24;100.00
20444;BME280;10381;53.730;10.010;2023-04-19T04:54:15;102683.53;;;5.60;100.00
20444;BME280;10381;53.730;10.010;2023-04-19T04:58:16;102687.59;;;5.92;100.00
20444;BME280;10381;53.730;10.010;2023-04-19T05:02:16;102681.56;;;6.12;100.00
20444;BME280;10381;53.730;10.010;2023-04-19T05:06:16;102688.84;;;6.27;100.00
20444;BME280;10381;53.730;10.010;2023-04-19T05:10:16;102684.56;;;6.47;100.00
20444;BME280;10381;53.730;10.010;2023-04-19T05:14:17;102678.00;;;6.57;100.00
20444;BME280;10381;53.730;10.010;2023-04-19T05:18:17;102673.47;;;6.60;100.00
20444;BME280;10381;53.730;10.010;2023-04-19T05:22:17;102681.91;;;6.69;100.00
20444;BME280;10381;53.730;10.010;2023-04-19T05:26:18;102679.44;;;6.86;100.00
20444;BME280;10381;53.730;10.010;2023-04-19T05:30:18;102679.81;;;6.97;100.00
20444;BME280;10381;53.730;10.010;2023-04-19T05:34:18;102678.31;;;6.92;100.00
20444;BME280;10381;53.730;10.010;2023-04-19T05:38:19;102673.28;;;7.27;100.00
20444;BME280;10381;53.730;10.010;2023-04-19T05:42:19;102675.72;;;7.50;100.00
20444;BME280;10381;53.730;10.010;2023-04-19T05:46:20;102673.41;;;7.63;100.00
20444;BME280;10381;53.730;10.010;2023-04-19T05:50:23;102669.41;;;7.73;100.00
20444;BME280;10381;53.730;10.010;2023-04-19T05:54:23;102656.16;;;7.75;100.00
20444;BME280;10381;53.730;10.010;2023-04-19T05:58:23;102665.34;;;7.85;100.00
20444;BME280;10381;53.730;10.010;2023-04-19T06:02:24;102663.28;;;7.92;100.00
20444;BME280;10381;53.730;10.010;2023-04-19T06:06:24;102662.78;;;8.02;100.00
20444;BME280;10381;53.730;10.010;2023-04-19T06:10:24;102663.59;;;8.22;100.00
20444;BME280;10381;53.730;10.010;2023-04-19T06:14:26;102661.28;;;8.16;100.00
20444;BME280;10381;53.730;10.010;2023-04-19T06:18:27;102661.75;;;8.24;100.00
20444;BME280;10381;53.730;10.010;2023-04-19T06:22:28;102666.94;;;7.89;100.00
20444;BME280;10381;53.730;10.010;2023-04-19T06:26:28;102665.97;;;8.09;100.00
20444;BME280;10381;53.730;10.010;2023-04-19T06:30:28;102667.47;;;8.15;100.00
20444;BME280;10381;53.730;10.010;2023-04-19T06:34:28;102661.59;;;8.08;100.00
20444;BME280;10381;53.730;10.010;2023-04-19T06:38:29;102658.34;;;7.46;100.00
20444;BME280;10381;53.730;10.010;2023-04-19T06:42:29;102651.66;;;7.39;100.00
20444;BME280;10381;53.730;10.010;2023-04-19T06:46:29;102652.88;;;7.51;100.00
20444;BME280;10381;53.730;10.010;2023-04-19T06:50:31;102653.94;;;7.65;100.00
20444;BME280;10381;53.730;10.010;2023-04-19T06:54:31;102653.22;;;7.81;100.00
20444;BME280;10381;53.730;10.010;2023-04-19T06:58:32;102660.75;;;8.07;100.00
20444;BME280;10381;53.730;10.010;2023-04-19T07:02:32;102653.81;;;8.24;100.00
20444;BME280;10381;53.730;10.010;2023-04-19T07:06:34;102648.69;;;8.57;100.00
20444;BME280;10381;53.730;10.010;2023-04-19T07:10:34;102658.25;;;8.60;100.00
20444;BME280;10381;53.730;10.010;2023-04-19T07:14:35;102650.94;;;8.82;100.00
20444;BME280;10381;53.730;10.010;2023-04-19T07:18:35;102651.25;;;8.93;100.00
20444;BME280;10381;53.730;10.010;2023-04-19T07:22:35;102652.47;;;9.04;100.00
20444;BME280;10381;53.730;10.010;2023-04-19T07:26:36;102648.75;;;9.08;100.00
20444;BME280;10381;53.730;10.010;2023-04-19T07:30:36;102647.41;;;9.16;100.00
20444;BME280;10381;53.730;10.010;2023-04-19T07:34:36;102640.47;;;9.31;100.00
20444;BME280;10381;53.730;10.010;2023-04-19T07:38:38;102641.59;;;9.59;100.00
20444;BME280;10381;53.730;10.010;2023-04-19T07:42:39;102623.78;;;9.63;100.00
20444;BME280;10381;53.730;10.010;2023-04-19T07:46:42;102629.41;;;9.88;100.00
20444;BME280;10381;53.730;10.010;2023-04-19T07:50:42;102619.84;;;9.86;100.00
20444;BME280;10381;53.730;10.010;2023-04-19T07:54:42;102631.78;;;9.93;100.00
20444;BME280;10381;53.730;10.010;2023-04-19T07:58:43;102626.50;;;9.93;100.00
20444;BME280;10381;53.730;10.010;2023-04-19T08:02:44;102620.44;;;10.07;100.00
20444;BME280;10381;53.730;10.010;2023-04-19T08:06:44;102627.59;;;10.05;100.00
20444;BME280;10381;53.730;10.010;2023-04-19T08:10:45;102628.50;;;10.51;100.00
20444;BME280;10381;53.730;10.010;2023-04-19T08:14:45;102627.31;;;10.41;98.11
20444;BME280;10381;53.730;10.010;2023-04-19T08:18:46;102624.91;;;10.36;98.43
20444;BME280;10381;53.730;10.010;2023-04-19T08:22:50;102623.34;;;10.48;97.09
20444;BME280;10381;53.730;10.010;2023-04-19T08:26:50;102615.63;;;10.59;96.00
20444;BME280;10381;53.730;10.010;2023-04-19T08:30:53;102616.41;;;10.61;96.18
20444;BME280;10381;53.730;10.010;2023-04-19T08:34:54;102604.97;;;10.75;100.00
20444;BME280;10381;53.730;10.010;2023-04-19T08:38:54;102605.72;;;10.77;93.67
20444;BME280;10381;53.730;10.010;2023-04-19T08:42:56;102610.84;;;10.66;90.46
20444;BME280;10381;53.730;10.010;2023-04-19T08:46:59;102599.66;;;10.61;91.69
20444;BME280;10381;53.730;10.010;2023-04-19T08:51:01;102596.16;;;10.89;91.43
20444;BME280;10381;53.730;10.010;2023-04-19T08:55:06;102587.44;;;10.12;95.28
20444;BME280;10381;53.730;10.010;2023-04-19T08:59:06;102590.97;;;9.81;91.75
20444;BME280;10381;53.730;10.010;2023-04-19T09:03:07;102577.81;;;9.95;93.14
20444;BME280;10381;53.730;10.010;2023-04-19T09:07:24;102579.88;;;9.90;97.41
20444;BME280;10381;53.730;10.010;2023-04-19T09:11:35;102579.41;;;10.30;94.87
20444;BME280;10381;53.730;10.010;2023-04-19T09:15:39;102572.50;;;9.95;96.68
20444;BME280;10381;53.730;10.010;2023-04-19T09:19:48;102566.75;;;10.35;98.59
20444;BME280;10381;53.730;10.010;2023-04-19T09:23:48;102568.31;;;10.82;88.42
20444;BME280;10381;53.730;10.010;2023-04-19T09:27:49;102572.72;;;10.97;85.59
20444;BME280;10381;53.730;10.010;2023-04-19T09:31:56;102553.75;;;11.18;81.47
20444;BME280;10381;53.730;10.010;2023-04-19T09:35:58;102564.34;;;11.18;73.80
20444;BME280;10381;53.730;10.010;2023-04-19T09:39:59;102567.19;;;11.29;72.26
20444;BME280;10381;53.730;10.010;2023-04-19T09:44:09;102552.03;;;11.31;70.16
20444;BME280;10381;53.730;10.010;2023-04-19T09:48:12;102542.81;;;11.37;72.94
20444;BME280;10381;53.730;10.010;2023-04-19T09:52:13;102538.69;;;11.60;71.45
20444;BME280;10381;53.730;10.010;2023-04-19T09:56:15;102536.84;;;11.47;68.04
20444;BME280;10381;53.730;10.010;2023-04-19T10:00:15;102528.41;;;11.41;60.71
20444;BME280;10381;53.730;10.010;2023-04-19T10:04:16;102520.66;;;11.38;62.39
20444;BME280;10381;53.730;10.010;2023-04-19T10:08:21;102521.53;;;11.78;63.03
20444;BME280;10381;53.730;10.010;2023-04-19T10:12:23;102527.22;;;12.26;60.92
20444;BME280;10381;53.730;10.010;2023-04-19T10:16:25;102518.16;;;11.76;55.74
20444;BME280;10381;53.730;10.010;2023-04-19T10:20:50;102515.75;;;11.86;55.82
20444;BME280;10381;53.730;10.010;2023-04-19T10:25:06;102514.88;;;11.85;54.00
20444;BME280;10381;53.730;10.010;2023-04-19T10:29:07;102511.38;;;11.85;52.34
20444;BME280;10381;53.730;10.010;2023-04-19T10:33:07;102507.06;;;11.42;50.50
20444;BME280;10381;53.730;10.010;2023-04-19T10:37:12;102493.59;;;12.00;53.01
20444;BME280;10381;53.730;10.010;2023-04-19T10:41:14;102488.50;;;11.97;50.76
20444;BME280;10381;53.730;10.010;2023-04-19T10:49:30;102473.75;;;12.18;50.69
20444;BME280;10381;53.730;10.010;2023-04-19T10:53:58;102482.78;;;12.03;48.94
20444;BME280;10381;53.730;10.010;2023-04-19T10:58:00;102473.09;;;12.02;47.96
20444;BME280;10381;53.730;10.010;2023-04-19T11:02:03;102464.09;;;12.17;47.96
20444;BME280;10381;53.730;10.010;2023-04-19T11:06:22;102457.16;;;12.02;46.19
20444;BME280;10381;53.730;10.010;2023-04-19T11:10:28;102461.97;;;11.82;45.53
20444;BME280;10381;53.730;10.010;2023-04-19T11:14:34;102471.31;;;12.15;46.99
20444;BME280;10381;53.730;10.010;2023-04-19T11:18:35;102748.38;;;12.31;47.98
20444;BME280;10381;53.730;10.010;2023-04-19T11:22:40;102576.16;;;11.97;44.90
20444;BME280;10381;53.730;10.010;2023-04-19T11:26:44;102748.13;;;11.79;44.78
20444;BME280;10381;53.730;10.010;2023-04-19T11:30:45;102782.09;;;12.02;46.21
20444;BME280;10381;53.730;10.010;2023-04-19T11:34:45;102450.38;;;11.83;44.63
20444;BME280;10381;53.730;10.010;2023-04-19T11:38:48;102453.78;;;11.85;43.58
20444;BME280;10381;53.730;10.010;2023-04-19T11:42:59;102441.22;;;12.02;47.06
20444;BME280;10381;53.730;10.010;2023-04-19T11:47:02;102427.41;;;12.09;47.89
20444;BME280;10381;53.730;10.010;2023-04-19T11:51:03;102441.16;;;11.76;46.22
20444;BME280;10381;53.730;10.010;2023-04-19T11:55:17;102444.97;;;11.72;44.39
20444;BME280;10381;53.730;10.010;2023-04-19T11:59:17;102427.06;;;11.48;43.73
20444;BME280;10381;53.730;10.010;2023-04-19T12:03:21;102448.75;;;11.55;45.00
20444;BME280;10381;53.730;10.010;2023-04-19T12:07:23;102417.03;;;11.39;43.54
20444;BME280;10381;53.730;10.010;2023-04-19T12:11:25;102429.59;;;11.23;41.33
20444;BME280;10381;53.730;10.010;2023-04-19T12:15:41;102426.06;;;11.37;42.22
20444;BME280;10381;53.730;10.010;2023-04-19T12:19:46;102430.38;;;11.52;41.92
20444;BME280;10381;53.730;10.010;2023-04-19T12:23:46;102413.59;;;11.24;42.15
20444;BME280;10381;53.730;10.010;2023-04-19T12:27:47;102423.63;;;11.34;42.89
20444;BME280;10381;53.730;10.010;2023-04-19T12:31:47;102433.72;;;11.14;42.01
20444;BME280;10381;53.730;10.010;2023-04-19T12:35:47;102415.91;;;11.43;44.23
20444;BME280;10381;53.730;10.010;2023-04-19T12:39:47;102428.56;;;11.52;43.01
20444;BME280;10381;53.730;10.010;2023-04-19T12:43:48;102399.47;;;11.64;42.65
20444;BME280;10381;53.730;10.010;2023-04-19T12:47:48;102412.50;;;11.41;42.01
20444;BME280;10381;53.730;10.010;2023-04-19T12:51:48;102400.59;;;11.07;39.28
20444;BME280;10381;53.730;10.010;2023-04-19T12:55:49;102405.78;;;11.08;40.16
20444;BME280;10381;53.730;10.010;2023-04-19T12:59:50;102398.06;;;10.91;40.94
20444;BME280;10381;53.730;10.010;2023-04-19T13:03:50;102399.03;;;11.17;42.31
20444;BME280;10381;53.730;10.010;2023-04-19T13:07:50;102409.19;;;11.11;42.36
20444;BME280;10381;53.730;10.010;2023-04-19T13:11:51;102403.09;;;10.81;38.99
20444;BME280;10381;53.730;10.010;2023-04-19T13:15:51;102397.59;;;10.84;39.95
20444;BME280;10381;53.730;10.010;2023-04-19T13:19:51;102399.50;;;10.82;40.38
20444;BME280;10381;53.730;10.010;2023-04-19T13:23:52;102399.13;;;11.16;43.13
20444;BME280;10381;53.730;10.010;2023-04-19T13:27:52;102395.22;;;10.80;38.93
20444;BME280;10381;53.730;10.010;2023-04-19T13:31:52;102381.13;;;10.79;41.30
20444;BME280;10381;53.730;10.010;2023-04-19T13:35:52;102388.28;;;10.92;41.52
20444;BME280;10381;53.730;10.010;2023-04-19T13:39:53;102372.63;;;11.01;41.25
20444;BME280;10381;53.730;10.010;2023-04-19T13:43:53;102370.53;;;10.79;40.70
20444;BME280;10381;53.730;10.010;2023-04-19T13:47:53;102378.19;;;10.84;41.27
20444;BME280;10381;53.730;10.010;2023-04-19T13:51:53;102384.16;;;11.15;42.57
20444;BME280;10381;53.730;10.010;2023-04-19T13:55:54;102374.59;;;11.39;42.64
20444;BME280;10381;53.730;10.010;2023-04-19T13:59:54;102371.06;;;11.26;41.66
20444;BME280;10381;53.730;10.010;2023-04-19T14:03:55;102349.34;;;11.06;44.13
20444;BME280;10381;53.730;10.010;2023-04-19T14:07:55;102361.03;;;11.17;43.01
20444;BME280;10381;53.730;10.010;2023-04-19T14:11:55;102367.91;;;11.46;44.28
20444;BME280;10381;53.730;10.010;2023-04-19T14:15:56;102332.38;;;11.09;41.14
20444;BME280;10381;53.730;10.010;2023-04-19T14:19:56;102346.41;;;10.70;40.53
20444;BME280;10381;53.730;10.010;2023-04-19T14:23:56;102339.88;;;10.75;42.51
20444;BME280;10381;53.730;10.010;2023-04-19T14:27:57;102342.03;;;10.83;41.46
20444;BME280;10381;53.730;10.010;2023-04-19T14:31:58;102339.56;;;10.80;41.86
20444;BME280;10381;53.730;10.010;2023-04-19T14:35:58;102340.22;;;11.11;42.25
20444;BME280;10381;53.730;10.010;2023-04-19T14:39:58;102323.84;;;10.77;41.34
20444;BME280;10381;53.730;10.010;2023-04-19T14:43:58;102323.31;;;10.72;40.56
20444;BME280;10381;53.730;10.010;2023-04-19T14:47:59;102323.13;;;10.60;41.61
20444;BME280;10381;53.730;10.010;2023-04-19T14:51:59;102320.31;;;10.91;42.80
20444;BME280;10381;53.730;10.010;2023-04-19T14:56:03;102314.47;;;10.85;40.90
20444;BME280;10381;53.730;10.010;2023-04-19T15:00:04;102297.09;;;10.94;40.20
20444;BME280;10381;53.730;10.010;2023-04-19T15:04:04;102298.50;;;11.00;39.82
20444;BME280;10381;53.730;10.010;2023-04-19T15:08:05;102254.19;;;10.75;39.19
20444;BME280;10381;53.730;10.010;2023-04-19T15:12:05;102293.88;;;10.89;39.18
20444;BME280;10381;53.730;10.010;2023-04-19T15:16:05;102266.56;;;10.61;40.34
20444;BME280;10381;53.730;10.010;2023-04-19T15:20:07;102302.09;;;10.72;41.73
20444;BME280;10381;53.730;10.010;2023-04-19T15:24:07;102289.84;;;10.83;41.53
20444;BME280;10381;53.730;10.010;2023-04-19T15:28:08;102284.94;;;11.04;41.83
20444;BME280;10381;53.730;10.010;2023-04-19T15:32:08;102287.09;;;10.85;42.11
20444;BME280;10381;53.730;10.010;2023-04-19T15:36:08;102272.22;;;11.09;43.27
20444;BME280;10381;53.730;10.010;2023-04-19T15:40:09;102278.91;;;12.30;41.76
20444;BME280;10381;53.730;10.010;2023-04-19T15:44:11;102264.09;;;13.47;39.73
20444;BME280;10381;53.730;10.010;2023-04-19T15:48:12;102287.19;;;13.35;39.52
20444;BME280;10381;53.730;10.010;2023-04-19T15:52:12;102290.81;;;14.69;39.92
20444;BME280;10381;53.730;10.010;2023-04-19T15:56:12;102284.84;;;13.77;38.53
20444;BME280;10381;53.730;10.010;2023-04-19T16:00:13;102278.28;;;14.37;40.01
20444;BME280;10381;53.730;10.010;2023-04-19T16:04:14;102274.44;;;13.27;39.50
20444;BME280;10381;53.730;10.010;2023-04-19T16:08:14;102270.78;;;14.09;39.67
20444;BME280;10381;53.730;10.010;2023-04-19T16:12:18;102274.88;;;13.56;40.36
20444;BME280;10381;53.730;10.010;2023-04-19T16:16:18;102267.91;;;14.00;40.93
20444;BME280;10381;53.730;10.010;2023-04-19T16:20:19;102268.97;;;14.09;40.55
20444;BME280;10381;53.730;10.010;2023-04-19T16:24:19;102270.19;;;13.71;39.79
20444;BME280;10381;53.730;10.010;2023-04-19T16:28:20;102269.34;;;13.82;40.12
20444;BME280;10381;53.730;10.010;2023-04-19T16:32:20;102264.75;;;13.95;39.98
20444;BME280;10381;53.730;10.010;2023-04-19T16:36:20;102258.47;;;13.74;40.65
20444;BME280;10381;53.730;10.010;2023-04-19T16:40:21;102268.38;;;14.05;41.30
20444;BME280;10381;53.730;10.010;2023-04-19T16:44:21;102265.88;;;14.70;40.44
20444;BME280;10381;53.730;10.010;2023-04-19T16:48:22;102267.84;;;14.34;40.89
20444;BME280;10381;53.730;10.010;2023-04-19T16:52:24;102268.38;;;11.92;43.15
20444;BME280;10381;53.730;10.010;2023-04-19T16:56:25;102264.31;;;10.41;48.21
20444;BME280;10381;53.730;10.010;2023-04-19T17:00:26;102258.69;;;9.90;48.29
20444;BME280;10381;53.730;10.010;2023-04-19T17:04:26;102259.81;;;9.71;49.67
20444;BME280;10381;53.730;10.010;2023-04-19T17:08:26;102255.66;;;9.67;50.31
20444;BME280;10381;53.730;10.010;2023-04-19T17:12:27;102253.59;;;9.58;50.62
20444;BME280;10381;53.730;10.010;2023-04-19T17:16:27;102253.94;;;9.52;51.36
20444;BME280;10381;53.730;10.010;2023-04-19T17:20:27;102250.91;;;9.44;51.01
20444;BME280;10381;53.730;10.010;2023-04-19T17:24:27;102246.69;;;9.55;51.68
20444;BME280;10381;53.730;10.010;2023-04-19T17:28:28;102243.47;;;9.65;50.80
20444;BME280;10381;53.730;10.010;2023-04-19T17:32:28;102241.19;;;9.87;49.59
20444;BME280;10381;53.730;10.010;2023-04-19T17:36:28;102253.06;;;10.92;47.67
20444;BME280;10381;53.730;10.010;2023-04-19T17:40:28;102245.53;;;10.85;47.60
20444;BME280;10381;53.730;10.010;2023-04-19T17:44:29;102255.41;;;10.96;48.15
20444;BME280;10381;53.730;10.010;2023-04-19T17:48:29;102249.94;;;10.72;48.24
20444;BME280;10381;53.730;10.010;2023-04-19T17:52:30;102260.47;;;10.18;49.58
20444;BME280;10381;53.730;10.010;2023-04-19T17:56:30;102248.44;;;9.26;52.09
20444;BME280;10381;53.730;10.010;2023-04-19T18:00:30;102252.03;;;8.95;53.81
20444;BME280;10381;53.730;10.010;2023-04-19T18:04:31;102258.81;;;8.53;56.11
20444;BME280;10381;53.730;10.010;2023-04-19T18:08:31;102253.16;;;8.11;58.21
20444;BME280;10381;53.730;10.010;2023-04-19T18:12:31;102246.41;;;7.90;60.02
20444;BME280;10381;53.730;10.010;2023-04-19T18:16:32;102254.91;;;7.79;60.24
20444;BME280;10381;53.730;10.010;2023-04-19T18:20:32;102256.47;;;7.66;61.24
20444;BME280;10381;53.730;10.010;2023-04-19T18:24:32;102241.53;;;7.49;62.69
20444;BME280;10381;53.730;10.010;2023-04-19T18:28:33;102244.81;;;7.37;64.52
20444;BME280;10381;53.730;10.010;2023-04-19T18:32:34;102240.63;;;7.33;63.85
20444;BME280;10381;53.730;10.010;2023-04-19T18:36:35;102234.97;;;7.23;66.05
20444;BME280;10381;53.730;10.010;2023-04-19T18:40:35;102248.69;;;7.12;67.36
20444;BME280;10381;53.730;10.010;2023-04-19T18:44:35;102238.84;;;6.98;68.62
20444;BME280;10381;53.730;10.010;2023-04-19T18:48:36;102238.78;;;6.64;75.63
20444;BME280;10381;53.730;10.010;2023-04-19T18:52:36;102232.81;;;6.60;79.42
20444;BME280;10381;53.730;10.010;2023-04-19T18:56:37;102235.31;;;6.63;80.44
20444;BME280;10381;53.730;10.010;2023-04-19T19:00:37;102229.34;;;6.59;81.54
20444;BME280;10381;53.730;10.010;2023-04-19T19:04:37;102230.94;;;6.45;84.98
20444;BME280;10381;53.730;10.010;2023-04-19T19:08:38;102232.81;;;6.24;88.98
20444;BME280;10381;53.730;10.010;2023-04-19T19:12:38;102240.06;;;6.37;86.97
20444;BME280;10381;53.730;10.010;2023-04-19T19:16:38;102232.38;;;6.33;87.65
20444;BME280;10381;53.730;10.010;2023-04-19T19:20:38;102231.03;;;6.24;91.21
20444;BME280;10381;53.730;10.010;2023-04-19T19:24:39;102217.91;;;6.23;88.83
20444;BME280;10381;53.730;10.010;2023-04-19T19:28:40;102218.38;;;6.13;89.88
20444;BME280;10381;53.730;10.010;2023-04-19T19:32:41;102220.72;;;6.01;90.75
20444;BME280;10381;53.730;10.010;2023-04-19T19:36:42;102207.94;;;5.91;93.36
20444;BME280;10381;53.730;10.010;2023-04-19T19:40:42;102202.03;;;5.67;98.47
20444;BME280;10381;53.730;10.010;2023-04-19T19:44:42;102208.97;;;5.49;100.00
20444;BME280;10381;53.730;10.010;2023-04-19T19:48:43;102203.47;;;5.35;100.00
20444;BME280;10381;53.730;10.010;2023-04-19T19:52:43;102212.94;;;5.19;100.00
20444;BME280;10381;53.730;10.010;2023-04-19T19:56:44;102222.78;;;4.93;100.00
20444;BME280;10381;53.730;10.010;2023-04-19T20:00:44;102222.91;;;5.10;100.00
20444;BME280;10381;53.730;10.010;2023-04-19T20:04:45;102232.13;;;5.60;100.00
20444;BME280;10381;53.730;10.010;2023-04-19T20:08:46;102247.38;;;6.12;98.27
20444;BME280;10381;53.730;10.010;2023-04-19T20:12:46;102249.28;;;6.82;92.16
20444;BME280;10381;53.730;10.010;2023-04-19T20:16:47;102234.19;;;6.86;93.24
20444;BME280;10381;53.730;10.010;2023-04-19T20:20:47;102228.47;;;6.95;100.00
20444;BME280;10381;53.730;10.010;2023-04-19T20:24:47;102203.41;;;7.04;100.00
20444;BME280;10381;53.730;10.010;2023-04-19T20:28:48;102184.56;;;7.12;100.00
20444;BME280;10381;53.730;10.010;2023-04-19T20:32:48;102201.88;;;7.17;100.00
20444;BME280;10381;53.730;10.010;2023-04-19T20:36:49;102182.94;;;7.27;100.00
20444;BME280;10381;53.730;10.010;2023-04-19T20:40:49;102193.25;;;7.31;100.00
20444;BME280;10381;53.730;10.010;2023-04-19T20:44:49;102185.09;;;7.36;100.00
20444;BME280;10381;53.730;10.010;2023-04-19T20:48:50;102193.03;;;7.52;100.00